Time;durP1;ratioP1;P1;durP2;ratioP2;P2;SDS_P1;SDS_P2;PMS_P1;PMS_P2;Temp;Humidity;BMP_temperature;BMP_pressure;BME280_temperature;BME280_humidity;BME280_pressure;Samples;Min_cycle;Max_cycle;Signal;HPM_P1;HPM_P2
2021/08/20 00:01:26;;;;;;;2.45;2.17;;;15.10;99.90;;;;;;4951124;28;20493;-47
2021/08/20 00:03:51;;;;;;;4.72;2.50;;;15.10;99.90;;;;;;4951196;29;20496;-45
2021/08/20 00:06:17;;;;;;;3.05;2.28;;;15.10;99.90;;;;;;4950943;28;20027;-48
2021/08/20 00:08:43;;;;;;;4.68;2.55;;;15.10;99.90;;;;;;4951035;29;20051;-49
2021/08/20 00:11:09;;;;;;;2.40;2.10;;;15.00;99.90;;;;;;4950923;29;20117;-51
2021/08/20 00:13:34;;;;;;;3.90;1.90;;;15.00;99.90;;;;;;4950702;28;20019;-52
2021/08/20 00:16:00;;;;;;;3.00;2.67;;;15.00;99.90;;;;;;4950412;29;20057;-50
2021/08/20 00:18:26;;;;;;;2.85;2.22;;;15.00;99.90;;;;;;4950073;29;20023;-50
2021/08/20 00:20:52;;;;;;;2.13;1.80;;;15.00;99.90;;;;;;4951279;29;20517;-48
2021/08/20 00:23:18;;;;;;;4.57;2.47;;;14.90;99.90;;;;;;4947012;29;20051;-47
2021/08/20 00:25:44;;;;;;;4.32;2.20;;;14.90;99.90;;;;;;4945647;28;20513;-55
2021/08/20 00:28:10;;;;;;;2.88;2.20;;;15.00;99.90;;;;;;4948477;28;20038;-52
2021/08/20 00:30:35;;;;;;;3.42;2.20;;;15.00;99.90;;;;;;4950926;29;20050;-50
2021/08/20 00:33:01;;;;;;;3.15;2.35;;;14.90;99.90;;;;;;4950501;29;20118;-49
2021/08/20 00:35:27;;;;;;;3.97;2.42;;;14.90;99.90;;;;;;4950072;28;20027;-49
2021/08/20 00:37:52;;;;;;;4.10;2.53;;;14.90;99.90;;;;;;4951075;29;20037;-46
2021/08/20 00:40:18;;;;;;;4.90;2.28;;;14.90;99.90;;;;;;4949473;29;20098;-49
2021/08/20 00:42:44;;;;;;;7.13;2.50;;;14.90;99.90;;;;;;4950698;29;20027;-49
2021/08/20 00:45:10;;;;;;;5.15;3.20;;;14.80;99.90;;;;;;4950209;29;20042;-46
2021/08/20 00:47:35;;;;;;;3.22;2.25;;;14.80;99.90;;;;;;4950823;29;20033;-49
2021/08/20 00:50:03;;;;;;;5.78;2.42;;;14.80;99.90;;;;;;4950478;29;20549;-49
2021/08/20 00:52:30;;;;;;;2.72;2.15;;;14.70;99.90;;;;;;4949759;28;20532;-47
2021/08/20 00:54:56;;;;;;;4.90;2.45;;;14.70;99.90;;;;;;4949754;29;20035;-47
2021/08/20 00:57:22;;;;;;;4.40;2.30;;;14.60;99.90;;;;;;4950045;29;20043;-47
2021/08/20 00:59:48;;;;;;;3.20;2.10;;;14.60;99.90;;;;;;4946060;29;20034;-46
2021/08/20 01:02:13;;;;;;;3.25;2.47;;;14.50;99.90;;;;;;4948069;28;20089;-47
2021/08/20 01:04:39;;;;;;;3.03;2.15;;;14.50;99.90;;;;;;4948522;29;20035;-49
2021/08/20 01:07:06;;;;;;;4.47;2.47;;;14.50;99.90;;;;;;4950208;29;20102;-51
2021/08/20 01:09:31;;;;;;;8.02;3.80;;;14.40;99.90;;;;;;4950196;29;20020;-51
2021/08/20 01:11:57;;;;;;;5.13;2.58;;;14.40;99.90;;;;;;4948531;28;20027;-51
2021/08/20 01:14:33;;;;;;;3.67;2.42;;;14.40;99.90;;;;;;4948813;29;20015;-52
2021/08/20 01:17:01;;;;;;;3.75;2.22;;;14.40;99.90;;;;;;4949452;29;20034;-53
2021/08/20 01:19:28;;;;;;;3.30;2.35;;;14.30;99.90;;;;;;4948765;29;20032;-48
2021/08/20 01:21:53;;;;;;;2.92;2.05;;;14.30;99.90;;;;;;4950452;28;20023;-49
2021/08/20 01:24:20;;;;;;;3.80;2.72;;;14.30;99.90;;;;;;4949828;29;20037;-54
2021/08/20 01:26:47;;;;;;;5.80;2.80;;;14.30;99.90;;;;;;4949928;29;20024;-47
2021/08/20 01:29:16;;;;;;;5.57;2.60;;;14.30;99.90;;;;;;4950179;28;20075;-49
2021/08/20 01:31:44;;;;;;;5.50;2.83;;;14.30;99.90;;;;;;4949472;28;20110;-48
2021/08/20 01:34:10;;;;;;;7.85;3.03;;;14.30;99.90;;;;;;4949982;29;20031;-53
2021/08/20 01:36:35;;;;;;;3.25;2.50;;;14.30;99.90;;;;;;4949715;29;20181;-54
2021/08/20 01:39:01;;;;;;;4.05;2.58;;;14.30;99.90;;;;;;4949760;29;20019;-54
2021/08/20 01:41:28;;;;;;;3.15;2.67;;;14.30;99.90;;;;;;4949827;29;20043;-49
2021/08/20 01:43:54;;;;;;;5.32;2.95;;;14.30;99.90;;;;;;4949963;29;20019;-46
2021/08/20 01:46:20;;;;;;;6.40;3.00;;;14.30;99.90;;;;;;4949770;29;20024;-52
2021/08/20 01:48:52;;;;;;;3.90;2.30;;;14.30;99.90;;;;;;4950216;29;20110;-50
2021/08/20 01:51:18;;;;;;;6.25;2.97;;;14.30;99.90;;;;;;4949539;29;20031;-50
2021/08/20 01:53:45;;;;;;;4.38;3.70;;;14.30;99.90;;;;;;4948007;29;20050;-52
2021/08/20 01:56:22;;;;;;;5.63;3.20;;;14.30;99.90;;;;;;4949630;29;20035;-49
2021/08/20 01:58:51;;;;;;;4.95;3.00;;;14.30;99.90;;;;;;4946289;29;20051;-50
2021/08/20 02:01:17;;;;;;;3.53;2.63;;;14.30;99.90;;;;;;4949952;29;20019;-49
2021/08/20 02:03:43;;;;;;;5.20;3.00;;;14.30;99.90;;;;;;4951554;28;20053;-47
2021/08/20 02:06:09;;;;;;;8.20;4.03;;;14.30;99.90;;;;;;4952790;29;20027;-49
2021/08/20 02:08:35;;;;;;;5.85;3.38;;;14.30;99.90;;;;;;4953236;29;20047;-49
2021/08/20 02:11:00;;;;;;;4.60;3.10;;;14.30;99.90;;;;;;4953637;29;20038;-54
2021/08/20 02:13:27;;;;;;;5.75;3.50;;;14.40;99.90;;;;;;4953160;28;20035;-48
2021/08/20 02:15:52;;;;;;;5.25;3.47;;;14.30;99.90;;;;;;4952887;29;20027;-46
2021/08/20 02:18:18;;;;;;;5.20;3.22;;;14.30;99.90;;;;;;4946299;29;20038;-47
2021/08/20 02:20:44;;;;;;;6.18;3.95;;;14.30;99.90;;;;;;4953053;29;20486;-48
2021/08/20 02:23:10;;;;;;;7.32;3.90;;;14.30;99.90;;;;;;4953086;28;20023;-46
2021/08/20 02:25:36;;;;;;;5.00;3.60;;;14.30;99.90;;;;;;4952874;29;20027;-50
2021/08/20 02:28:02;;;;;;;8.02;3.70;;;14.30;99.90;;;;;;4953200;29;20050;-46
2021/08/20 02:30:28;;;;;;;4.28;3.58;;;14.30;99.90;;;;;;4952651;29;20015;-47
2021/08/20 02:32:54;;;;;;;7.78;3.50;;;14.30;99.90;;;;;;4952937;28;20101;-47
2021/08/20 02:35:20;;;;;;;5.90;4.00;;;14.30;99.90;;;;;;4952439;29;20074;-52
2021/08/20 02:37:45;;;;;;;7.28;4.28;;;14.30;99.90;;;;;;4952716;28;20027;-51
2021/08/20 02:40:11;;;;;;;4.88;3.83;;;14.30;99.90;;;;;;4952895;29;20026;-50
2021/08/20 02:42:37;;;;;;;5.10;3.55;;;14.30;99.90;;;;;;4952767;28;20129;-51
2021/08/20 02:45:03;;;;;;;6.53;4.30;;;14.30;99.90;;;;;;4952563;29;20027;-49
2021/08/20 02:47:29;;;;;;;5.10;3.75;;;14.30;99.90;;;;;;4952631;29;20031;-51
2021/08/20 02:49:54;;;;;;;8.25;4.10;;;14.30;99.90;;;;;;4952453;29;20557;-50
2021/08/20 02:52:20;;;;;;;8.05;4.03;;;14.30;99.90;;;;;;4952558;28;20138;-50
2021/08/20 02:54:46;;;;;;;5.93;4.10;;;14.30;99.90;;;;;;4951422;29;20043;-50
2021/08/20 02:57:11;;;;;;;4.45;3.58;;;14.30;99.90;;;;;;4952404;29;20059;-50
2021/08/20 02:59:37;;;;;;;5.97;4.45;;;14.30;99.90;;;;;;4952184;29;20074;-47
2021/08/20 03:02:03;;;;;;;6.68;4.15;;;14.30;99.90;;;;;;4951800;29;20039;-53
2021/08/20 03:04:29;;;;;;;6.28;4.68;;;14.30;99.90;;;;;;4951042;28;20027;-54
2021/08/20 03:06:55;;;;;;;6.20;4.35;;;14.30;99.90;;;;;;4950702;29;20027;-50
2021/08/20 03:09:21;;;;;;;7.03;4.45;;;14.30;99.90;;;;;;4951844;29;20011;-52
2021/08/20 03:11:47;;;;;;;6.20;4.30;;;14.30;99.90;;;;;;4950903;28;20019;-52
2021/08/20 03:14:13;;;;;;;6.57;4.10;;;14.20;99.90;;;;;;4950201;28;20312;-50
2021/08/20 03:16:39;;;;;;;6.50;4.20;;;14.20;99.90;;;;;;4950014;29;20019;-49
2021/08/20 03:19:05;;;;;;;7.22;3.95;;;14.20;99.90;;;;;;4951975;28;20462;-51
2021/08/20 03:21:30;;;;;;;7.43;4.82;;;14.20;99.90;;;;;;4951714;28;20019;-54
2021/08/20 03:23:56;;;;;;;6.65;4.43;;;14.20;99.90;;;;;;4951730;29;20082;-51
2021/08/20 03:26:23;;;;;;;9.30;4.65;;;14.20;99.90;;;;;;4951657;29;20599;-54
2021/08/20 03:28:48;;;;;;;6.68;4.18;;;14.20;99.90;;;;;;4950587;29;20054;-51
2021/08/20 03:31:14;;;;;;;6.85;4.63;;;14.20;99.90;;;;;;4952101;28;20047;-54
2021/08/20 03:33:40;;;;;;;10.10;4.63;;;14.20;99.90;;;;;;4951578;29;20094;-53
2021/08/20 03:36:05;;;;;;;5.38;3.95;;;14.20;99.90;;;;;;4951144;29;20118;-50
2021/08/20 03:38:31;;;;;;;8.18;4.22;;;14.20;99.90;;;;;;4951665;29;20023;-53
2021/08/20 03:40:57;;;;;;;5.57;4.50;;;14.20;99.90;;;;;;4951619;29;20034;-53
2021/08/20 03:43:22;;;;;;;6.90;4.38;;;14.20;99.90;;;;;;4951606;28;20544;-54
2021/08/20 03:45:48;;;;;;;8.55;4.47;;;14.20;99.90;;;;;;4951035;29;20020;-51
2021/08/20 03:48:13;;;;;;;6.28;4.53;;;14.20;99.90;;;;;;4950313;29;20031;-52
2021/08/20 03:50:39;;;;;;;6.60;4.55;;;14.20;99.90;;;;;;4951248;29;20110;-52
2021/08/20 03:53:04;;;;;;;6.75;4.75;;;14.20;99.90;;;;;;4950997;28;20106;-53
2021/08/20 03:55:30;;;;;;;7.75;4.38;;;14.20;99.90;;;;;;4950928;29;20027;-50
2021/08/20 03:57:56;;;;;;;6.50;4.60;;;14.20;99.90;;;;;;4950881;29;20031;-53
2021/08/20 04:00:21;;;;;;;5.47;3.97;;;14.20;99.90;;;;;;4950131;29;20083;-54
2021/08/20 04:02:47;;;;;;;5.30;4.28;;;14.10;99.90;;;;;;4950658;29;20505;-51
2021/08/20 04:05:12;;;;;;;6.72;4.28;;;14.20;99.90;;;;;;4950501;29;20666;-54
2021/08/20 04:07:38;;;;;;;4.78;3.50;;;14.20;99.90;;;;;;4950565;29;20541;-54
2021/08/20 04:10:04;;;;;;;5.68;4.60;;;14.10;99.90;;;;;;4950718;29;20082;-50
2021/08/20 04:12:30;;;;;;;7.70;5.28;;;14.20;99.90;;;;;;4950713;28;20573;-56
2021/08/20 04:14:55;;;;;;;6.75;4.57;;;14.10;99.90;;;;;;4950341;28;20046;-52
2021/08/20 04:17:21;;;;;;;6.80;4.55;;;14.10;99.90;;;;;;4950761;29;20057;-51
2021/08/20 04:19:46;;;;;;;6.72;4.63;;;14.10;99.90;;;;;;4950671;29;20030;-53
2021/08/20 04:22:12;;;;;;;7.63;5.00;;;14.10;99.90;;;;;;4950240;28;20019;-55
2021/08/20 04:24:38;;;;;;;5.95;4.63;;;14.10;99.90;;;;;;4948999;29;20015;-49
2021/08/20 04:27:04;;;;;;;4.50;3.63;;;14.10;99.90;;;;;;4948894;28;20090;-55
2021/08/20 04:29:29;;;;;;;7.75;4.63;;;14.10;99.90;;;;;;4944036;29;20535;-53
2021/08/20 04:31:56;;;;;;;6.88;4.85;;;14.10;99.90;;;;;;4950453;28;20106;-55
2021/08/20 04:34:23;;;;;;;7.38;4.60;;;14.10;99.90;;;;;;4948056;29;20343;-50
2021/08/20 04:36:49;;;;;;;9.68;5.72;;;14.10;99.90;;;;;;4949997;29;20030;-49
2021/08/20 04:39:15;;;;;;;7.47;4.63;;;14.20;99.90;;;;;;4950161;29;20382;-49
2021/08/20 04:41:41;;;;;;;9.32;5.60;;;14.20;99.90;;;;;;4950431;28;20023;-52
2021/08/20 04:44:06;;;;;;;8.25;5.72;;;14.20;99.90;;;;;;4950113;29;20579;-51
2021/08/20 04:46:32;;;;;;;9.05;5.10;;;14.20;99.90;;;;;;4949926;29;20034;-51
2021/08/20 04:48:57;;;;;;;8.98;5.78;;;14.20;99.90;;;;;;4948859;29;20031;-51
2021/08/20 04:51:23;;;;;;;8.18;5.60;;;14.20;99.90;;;;;;4949845;28;20035;-52
2021/08/20 04:53:50;;;;;;;9.48;6.47;;;14.20;99.90;;;;;;4949983;29;20114;-49
2021/08/20 04:56:16;;;;;;;7.93;5.28;;;14.30;99.90;;;;;;4949525;29;20018;-49
2021/08/20 04:58:42;;;;;;;6.78;5.07;;;14.30;99.90;;;;;;4949778;29;20019;-54
2021/08/20 05:01:07;;;;;;;8.65;5.60;;;14.30;99.90;;;;;;4949701;29;20378;-51
2021/08/20 05:03:33;;;;;;;15.55;7.13;;;14.30;99.90;;;;;;4990687;23;20047;-52
2021/08/20 05:05:59;;;;;;;12.50;7.18;;;14.30;99.90;;;;;;4987729;28;20080;-52
2021/08/20 05:08:24;;;;;;;8.88;6.20;;;14.30;99.90;;;;;;4988474;28;20562;-51
2021/08/20 05:10:50;;;;;;;8.50;6.40;;;14.30;99.90;;;;;;4987509;28;20018;-52
2021/08/20 05:13:16;;;;;;;10.68;7.25;;;14.30;99.90;;;;;;4986925;28;20018;-52
2021/08/20 05:15:41;;;;;;;11.30;6.95;;;14.40;99.90;;;;;;4988341;28;20033;-50
2021/08/20 05:18:07;;;;;;;14.65;7.97;;;14.40;99.90;;;;;;4988906;28;20023;-54
2021/08/20 05:20:32;;;;;;;13.40;7.10;;;14.40;99.90;;;;;;4997867;28;20477;-52
2021/08/20 05:22:58;;;;;;;12.93;7.22;;;14.40;99.90;;;;;;4988629;28;20018;-52
2021/08/20 05:25:26;;;;;;;12.98;6.55;;;14.40;99.90;;;;;;4987928;28;20041;-52
2021/08/20 05:27:52;;;;;;;15.35;8.70;;;14.40;99.90;;;;;;4988898;28;20033;-52
2021/08/20 05:30:19;;;;;;;12.20;6.85;;;14.50;99.90;;;;;;4988578;28;20049;-51
2021/08/20 05:32:45;;;;;;;9.60;7.00;;;14.50;99.90;;;;;;4986493;28;20033;-52
2021/08/20 05:35:12;;;;;;;11.45;7.03;;;14.50;99.90;;;;;;4986756;28;20034;-52
2021/08/20 05:37:39;;;;;;;10.75;6.28;;;14.50;99.90;;;;;;4987131;28;20024;-52
2021/08/20 05:40:05;;;;;;;13.27;7.00;;;14.50;99.90;;;;;;4992253;28;20064;-51
2021/08/20 05:42:31;;;;;;;14.23;7.53;;;14.50;99.90;;;;;;4991965;28;20026;-54
2021/08/20 05:44:56;;;;;;;10.30;6.40;;;14.50;99.90;;;;;;4992111;28;20030;-51
2021/08/20 05:47:23;;;;;;;8.45;6.32;;;14.60;99.90;;;;;;4992363;28;20025;-54
2021/08/20 05:49:49;;;;;;;10.77;6.28;;;14.60;99.90;;;;;;4992213;28;20496;-54
2021/08/20 05:52:15;;;;;;;7.80;6.22;;;14.60;99.90;;;;;;4992456;28;20042;-51
2021/08/20 05:54:40;;;;;;;8.68;5.32;;;14.60;99.90;;;;;;4991975;28;20324;-54
2021/08/20 05:57:06;;;;;;;12.05;6.03;;;14.60;99.90;;;;;;4992215;28;20384;-51
2021/08/20 05:59:31;;;;;;;12.00;6.80;;;14.60;99.90;;;;;;4991754;28;20014;-51
2021/08/20 06:01:57;;;;;;;7.22;5.10;;;14.60;99.90;;;;;;4991797;28;20058;-52
2021/08/20 06:04:23;;;;;;;5.72;4.63;;;14.60;99.90;;;;;;4991525;28;20110;-52
2021/08/20 06:06:48;;;;;;;7.53;5.28;;;14.60;99.90;;;;;;4991732;28;20081;-50
2021/08/20 06:09:15;;;;;;;14.20;6.55;;;14.70;99.90;;;;;;4990601;28;20416;-53
2021/08/20 06:11:40;;;;;;;7.47;4.78;;;14.70;99.90;;;;;;4991598;28;20022;-52
2021/08/20 06:14:06;;;;;;;6.88;4.40;;;14.70;99.90;;;;;;4991560;28;20033;-55
2021/08/20 06:16:32;;;;;;;9.18;5.20;;;14.70;99.90;;;;;;4991544;28;20028;-52
2021/08/20 06:18:57;;;;;;;4.80;4.38;;;14.80;99.90;;;;;;4991565;28;20077;-52
2021/08/20 06:21:23;;;;;;;7.07;4.18;;;14.70;99.90;;;;;;4991840;28;20014;-51
2021/08/20 06:23:49;;;;;;;6.40;4.90;;;14.70;99.90;;;;;;4985077;28;20023;-51
2021/08/20 06:26:14;;;;;;;7.43;5.28;;;14.70;99.90;;;;;;4972829;28;20040;-50
2021/08/20 06:28:40;;;;;;;12.05;6.05;;;14.70;99.90;;;;;;4974594;28;20106;-51
2021/08/20 06:31:06;;;;;;;9.55;5.68;;;14.70;99.90;;;;;;4977297;28;20433;-53
2021/08/20 06:33:33;;;;;;;6.47;4.38;;;14.70;99.90;;;;;;4974727;28;20035;-53
2021/08/20 06:35:58;;;;;;;7.03;5.47;;;14.70;99.90;;;;;;4989399;28;20444;-54
2021/08/20 06:38:24;;;;;;;6.22;5.40;;;14.80;99.90;;;;;;4990749;28;20102;-51
2021/08/20 06:40:50;;;;;;;10.65;5.93;;;14.90;99.90;;;;;;4988282;28;20560;-51
2021/08/20 06:43:16;;;;;;;7.50;5.65;;;15.00;99.90;;;;;;4989793;28;20023;-53
2021/08/20 06:45:42;;;;;;;7.68;6.35;;;15.20;99.90;;;;;;4989538;28;20035;-50
2021/08/20 06:48:07;;;;;;;9.55;6.07;;;15.30;99.90;;;;;;4989543;28;20022;-52
2021/08/20 06:50:33;;;;;;;9.05;5.93;;;15.30;99.90;;;;;;4986914;28;20049;-50
2021/08/20 06:52:58;;;;;;;9.82;6.47;;;15.30;99.90;;;;;;4989455;28;20101;-54
2021/08/20 06:55:24;;;;;;;8.63;6.30;;;15.30;99.90;;;;;;4990776;28;20380;-52
2021/08/20 06:57:50;;;;;;;10.93;7.32;;;15.40;99.90;;;;;;4990981;28;20432;-54
2021/08/20 07:00:16;;;;;;;12.05;8.00;;;15.40;99.90;;;;;;4991069;28;20105;-55
2021/08/20 07:02:46;;;;;;;11.73;7.97;;;15.40;99.90;;;;;;4990205;28;20018;-51
2021/08/20 07:05:13;;;;;;;9.10;6.55;;;15.40;99.90;;;;;;4990472;28;20023;-53
2021/08/20 07:07:40;;;;;;;8.57;6.70;;;15.40;99.90;;;;;;4990770;28;20062;-52
2021/08/20 07:10:10;;;;;;;9.32;7.88;;;15.50;99.90;;;;;;4990732;28;20283;-52
2021/08/20 07:12:37;;;;;;;10.15;6.80;;;15.50;99.90;;;;;;4990650;28;20022;-51
2021/08/20 07:15:04;;;;;;;10.85;7.82;;;15.50;99.90;;;;;;4990411;28;20030;-52
2021/08/20 07:17:30;;;;;;;11.00;8.00;;;15.60;99.90;;;;;;4982718;28;20062;-52
2021/08/20 07:19:55;;;;;;;10.25;7.93;;;15.80;99.90;;;;;;4990491;28;20100;-51
2021/08/20 07:22:21;;;;;;;10.27;8.23;;;15.80;99.90;;;;;;4990494;28;20022;-53
2021/08/20 07:24:46;;;;;;;8.05;7.13;;;15.90;99.90;;;;;;4990412;28;20025;-52
2021/08/20 07:27:12;;;;;;;8.57;7.38;;;15.90;99.90;;;;;;4989842;28;20032;-55
2021/08/20 07:29:37;;;;;;;9.93;8.38;;;16.00;99.90;;;;;;4990771;28;20485;-51
2021/08/20 07:32:03;;;;;;;10.20;8.15;;;16.10;99.90;;;;;;4990457;28;20029;-52
2021/08/20 07:34:29;;;;;;;11.20;8.60;;;16.10;99.90;;;;;;4983726;28;20077;-52
2021/08/20 07:36:54;;;;;;;11.25;9.45;;;16.10;99.90;;;;;;4990610;28;20115;-52
2021/08/20 07:39:20;;;;;;;11.43;8.85;;;16.10;99.90;;;;;;4990695;28;20033;-52
2021/08/20 07:41:46;;;;;;;11.63;8.48;;;16.20;99.90;;;;;;4990193;28;20205;-51
2021/08/20 07:44:14;;;;;;;11.75;8.88;;;16.20;99.90;;;;;;4990365;28;20093;-50
2021/08/20 07:46:43;;;;;;;9.35;7.88;;;16.30;99.90;;;;;;4989104;28;20073;-52
2021/08/20 07:49:08;;;;;;;11.15;9.40;;;16.30;99.90;;;;;;4990214;28;20026;-50
2021/08/20 07:51:34;;;;;;;10.07;8.10;;;16.40;99.90;;;;;;4990683;28;20033;-51
2021/08/20 07:54:00;;;;;;;10.18;7.97;;;16.30;99.90;;;;;;4990395;28;20026;-52
2021/08/20 07:56:25;;;;;;;9.13;8.23;;;16.40;99.90;;;;;;4989582;28;20049;-52
2021/08/20 07:58:51;;;;;;;9.20;8.20;;;16.40;99.90;;;;;;4990178;28;20022;-52
2021/08/20 08:01:18;;;;;;;12.35;8.50;;;16.40;99.90;;;;;;4989932;28;20026;-51
2021/08/20 08:03:43;;;;;;;7.10;6.40;;;16.50;99.90;;;;;;4990096;28;20536;-50
2021/08/20 08:06:13;;;;;;;9.38;7.68;;;16.60;99.90;;;;;;4989282;28;20031;-51
2021/08/20 08:08:42;;;;;;;8.90;6.97;;;16.60;99.90;;;;;;4989586;28;20029;-52
2021/08/20 08:11:09;;;;;;;7.90;6.45;;;16.60;99.90;;;;;;4989939;28;20033;-53
2021/08/20 08:13:36;;;;;;;7.03;6.32;;;16.60;99.90;;;;;;4990067;28;20121;-52
2021/08/20 08:16:02;;;;;;;7.80;6.13;;;16.70;99.90;;;;;;4989611;28;20049;-54
2021/08/20 08:18:27;;;;;;;7.47;6.30;;;16.60;99.90;;;;;;4987818;28;20430;-51
2021/08/20 08:20:53;;;;;;;7.75;6.43;;;16.70;99.90;;;;;;4989666;28;20020;-51
2021/08/20 08:23:18;;;;;;;6.55;5.85;;;16.70;99.90;;;;;;4990074;28;20026;-52
2021/08/20 08:25:44;;;;;;;7.53;5.20;;;16.70;99.90;;;;;;4989057;28;20116;-52
2021/08/20 08:28:10;;;;;;;6.22;4.88;;;16.70;99.90;;;;;;4989339;28;20045;-52
2021/08/20 08:30:37;;;;;;;6.20;5.35;;;16.80;99.90;;;;;;4989153;28;20058;-53
2021/08/20 08:33:04;;;;;;;6.85;5.15;;;16.80;99.90;;;;;;4989809;28;20108;-52
2021/08/20 08:35:29;;;;;;;6.35;5.47;;;16.90;99.90;;;;;;4988500;28;20018;-53
2021/08/20 08:38:03;;;;;;;6.20;5.22;;;16.90;99.90;;;;;;4986614;28;20531;-54
2021/08/20 08:40:29;;;;;;;5.70;4.53;;;17.00;99.90;;;;;;4970893;28;20077;-52
2021/08/20 08:42:57;;;;;;;5.10;4.60;;;17.10;99.90;;;;;;4971173;28;20461;-52
2021/08/20 08:45:23;;;;;;;4.82;4.32;;;17.10;99.90;;;;;;4973102;28;20015;-52
2021/08/20 08:47:51;;;;;;;4.40;4.00;;;17.30;99.90;;;;;;4979878;28;20042;-52
2021/08/20 08:50:17;;;;;;;4.30;3.90;;;17.50;99.90;;;;;;4976788;28;20514;-51
2021/08/20 08:52:43;;;;;;;4.03;3.17;;;17.60;99.90;;;;;;4975521;28;20138;-54
2021/08/20 08:55:09;;;;;;;4.13;3.70;;;17.70;99.90;;;;;;4975556;28;20062;-55
2021/08/20 08:57:35;;;;;;;7.40;3.42;;;17.70;99.90;;;;;;4974495;28;20105;-53
2021/08/20 09:00:01;;;;;;;5.57;3.33;;;17.70;99.90;;;;;;4989020;28;20105;-52
2021/08/20 09:02:29;;;;;;;4.30;3.83;;;17.70;99.90;;;;;;4989270;28;20442;-52
2021/08/20 09:05:03;;;;;;;5.22;3.40;;;17.70;99.90;;;;;;4988435;28;20386;-52
2021/08/20 09:07:29;;;;;;;3.88;3.47;;;17.60;99.90;;;;;;4988847;28;20010;-52
2021/08/20 09:10:18;;;;;;;5.38;3.58;;;17.60;99.90;;;;;;4989017;28;20101;-53
2021/08/20 09:12:49;;;;;;;4.43;3.45;;;17.60;99.90;;;;;;4983789;28;20500;-54
2021/08/20 09:15:16;;;;;;;3.60;3.30;;;17.60;99.90;;;;;;4988744;28;20601;-54
2021/08/20 09:17:47;;;;;;;4.07;3.03;;;17.50;99.90;;;;;;4989088;28;20019;-52
2021/08/20 09:20:34;;;;;;;4.07;3.67;;;17.50;99.90;;;;;;4988716;28;20085;-54
2021/08/20 09:23:02;;;;;;;5.15;4.05;;;17.50;99.90;;;;;;4989154;28;20072;-53
2021/08/20 09:25:43;;;;;;;5.32;3.95;;;17.50;99.90;;;;;;4999640;28;20048;-52
2021/08/20 09:28:24;;;;;;;4.15;3.75;;;17.50;99.90;;;;;;4987527;28;20018;-55
2021/08/20 09:30:58;;;;;;;4.55;4.07;;;17.50;99.90;;;;;;4988215;28;20015;-53
2021/08/20 09:33:30;;;;;;;5.05;4.55;;;17.50;99.90;;;;;;4981278;28;20018;-52
2021/08/20 09:36:05;;;;;;;4.93;4.40;;;17.60;99.90;;;;;;4988563;28;20114;-57
2021/08/20 09:38:33;;;;;;;4.88;4.38;;;17.70;99.90;;;;;;4988692;28;20668;-55
2021/08/20 09:41:05;;;;;;;5.78;5.20;;;17.70;99.90;;;;;;4988248;28;20035;-57
2021/08/20 09:43:36;;;;;;;6.18;5.45;;;17.80;99.90;;;;;;4986803;28;20019;-53
2021/08/20 09:46:01;;;;;;;5.88;5.10;;;17.70;99.90;;;;;;4988074;28;20117;-55
2021/08/20 09:48:47;;;;;;;8.00;5.70;;;17.70;99.90;;;;;;4988754;28;20577;-53
2021/08/20 09:51:31;;;;;;;8.32;6.90;;;17.80;99.90;;;;;;4987383;28;20396;-53
2021/08/20 09:54:07;;;;;;;10.30;6.20;;;17.80;99.90;;;;;;4987745;28;20042;-54
2021/08/20 09:56:33;;;;;;;;;;;17.90;99.90;;;;;;4987477;28;20034;-51
2021/08/20 09:59:01;;;;;;;8.38;6.28;;;17.90;99.90;;;;;;4987132;28;20007;-51
2021/08/20 10:01:29;;;;;;;7.75;6.68;;;17.90;99.90;;;;;;4988074;28;20133;-52
2021/08/20 10:03:59;;;;;;;16.77;11.88;;;17.90;99.90;;;;;;4988296;28;20038;-52
2021/08/20 10:06:40;;;;;;;9.23;7.20;;;17.90;99.90;;;;;;4988357;28;20117;-54
2021/08/20 10:09:10;;;;;;;6.97;6.28;;;17.80;99.90;;;;;;4987227;28;20030;-55
2021/08/20 10:11:40;;;;;;;10.07;7.15;;;17.80;99.90;;;;;;4987992;28;20037;-51
2021/08/20 10:14:06;;;;;;;8.23;6.82;;;17.80;99.90;;;;;;4986119;28;20105;-50
2021/08/20 10:16:34;;;;;;;7.38;6.50;;;17.70;99.90;;;;;;4984716;28;20025;-52
2021/08/20 10:19:01;;;;;;;9.55;7.07;;;17.70;99.90;;;;;;4971070;28;20019;-51
2021/08/20 10:21:30;;;;;;;8.05;5.93;;;17.50;99.90;;;;;;4984141;28;20105;-49
2021/08/20 10:23:56;;;;;;;8.45;6.35;;;17.50;99.90;;;;;;4969744;28;20027;-50
2021/08/20 10:26:22;;;;;;;7.82;6.40;;;17.50;99.90;;;;;;4990284;28;20113;-51
2021/08/20 10:28:49;;;;;;;7.82;6.10;;;17.50;99.90;;;;;;4990953;28;20019;-48
2021/08/20 10:31:16;;;;;;;6.35;5.47;;;17.50;99.90;;;;;;4988391;28;20018;-49
2021/08/20 10:33:42;;;;;;;7.10;6.20;;;17.50;99.90;;;;;;4976523;28;20023;-50
2021/08/20 10:36:09;;;;;;;6.03;4.90;;;17.40;99.90;;;;;;4978537;28;20038;-51
2021/08/20 10:38:48;;;;;;;7.20;6.47;;;17.30;99.90;;;;;;4978850;28;20020;-51
2021/08/20 10:41:20;;;;;;;7.22;5.75;;;17.40;99.90;;;;;;4975375;28;20035;-50
2021/08/20 10:44:02;;;;;;;6.68;5.82;;;17.40;99.90;;;;;;4976214;28;20025;-51
2021/08/20 10:46:31;;;;;;;6.93;5.63;;;17.50;99.90;;;;;;4981008;28;20023;-49
2021/08/20 10:49:15;;;;;;;6.90;5.97;;;17.60;99.90;;;;;;4985416;28;20085;-55
2021/08/20 10:51:53;;;;;;;8.00;6.90;;;17.70;99.90;;;;;;4990224;28;20579;-50
2021/08/20 10:54:42;;;;;;;7.65;6.47;;;18.00;99.90;;;;;;4985802;28;20446;-51
2021/08/20 10:57:10;;;;;;;6.45;5.85;;;18.00;99.90;;;;;;4989419;28;20095;-51
2021/08/20 10:59:35;;;;;;;8.07;6.18;;;18.10;99.90;;;;;;4990554;28;20393;-51
2021/08/20 11:02:22;;;;;;;6.68;6.00;;;18.20;99.90;;;;;;4991388;28;20033;-52
2021/08/20 11:07:36;;;;;;;6.85;6.15;;;18.50;99.90;;;;;;5028211;23;20115;-51
2021/08/20 11:10:08;;;;;;;7.95;6.60;;;18.60;99.90;;;;;;5009743;28;20562;-54
2021/08/20 11:12:47;;;;;;;7.57;6.28;;;18.70;99.90;;;;;;5010717;28;20104;-55
2021/08/20 11:15:21;;;;;;;8.05;6.97;;;18.70;99.90;;;;;;5001694;28;20495;-54
2021/08/20 11:17:50;;;;;;;7.55;6.18;;;18.70;99.90;;;;;;4991020;28;20025;-52
2021/08/20 11:20:38;;;;;;;8.80;6.68;;;18.70;99.90;;;;;;4983856;28;20611;-56
2021/08/20 11:23:10;;;;;;;7.40;6.18;;;18.80;99.90;;;;;;4989250;28;20684;-53
2021/08/20 11:25:43;;;;;;;7.32;6.53;;;18.80;99.90;;;;;;4983246;28;20045;-52
2021/08/20 11:28:32;;;;;;;8.80;7.22;;;18.80;99.90;;;;;;4987074;28;20370;-55
2021/08/20 11:31:08;;;;;;;9.85;7.88;;;18.90;99.90;;;;;;4985115;28;20027;-54
2021/08/20 11:33:38;;;;;;;10.35;7.82;;;19.00;99.90;;;;;;4989293;28;20126;-55
2021/08/20 11:36:08;;;;;;;8.55;7.60;;;19.00;99.90;;;;;;4983538;28;20125;-55
2021/08/20 11:38:43;;;;;;;10.40;7.28;;;19.10;99.90;;;;;;4987371;28;20014;-55
2021/08/20 11:41:22;;;;;;;11.05;9.32;;;19.30;99.90;;;;;;4984353;28;20018;-56
2021/08/20 11:43:56;;;;;;;11.20;8.20;;;19.40;99.90;;;;;;4986802;28;20493;-52
2021/08/20 11:46:26;;;;;;;9.85;7.90;;;19.40;99.90;;;;;;4989503;28;20026;-52
2021/08/20 11:48:54;;;;;;;9.25;8.27;;;19.30;99.90;;;;;;4984712;28;20022;-53
2021/08/20 11:51:27;;;;;;;10.48;8.20;;;19.30;99.90;;;;;;4984686;28;20022;-54
2021/08/20 11:53:54;;;;;;;9.05;7.05;;;19.30;99.90;;;;;;4998578;28;20074;-54
2021/08/20 11:56:19;;;;;;;6.00;5.40;;;19.30;99.90;;;;;;4986235;28;20026;-53
2021/08/20 11:58:45;;;;;;;5.35;4.85;;;19.40;99.90;;;;;;4984888;28;20073;-53
2021/08/20 12:01:21;;;;;;;4.97;4.20;;;19.40;99.90;;;;;;4985875;28;20030;-52
2021/08/20 12:03:49;;;;;;;6.30;3.75;;;19.50;99.90;;;;;;4990303;28;20106;-53
2021/08/20 12:06:16;;;;;;;5.22;3.58;;;19.50;99.90;;;;;;4983682;28;20039;-57
2021/08/20 12:08:42;;;;;;;3.97;3.50;;;19.60;99.90;;;;;;4978158;28;20050;-54
2021/08/20 12:11:09;;;;;;;3.78;3.08;;;19.40;99.90;;;;;;4976626;28;20019;-53
2021/08/20 12:13:42;;;;;;;4.45;2.90;;;19.30;99.90;;;;;;4984221;28;20527;-54
2021/08/20 12:16:08;;;;;;;3.28;2.78;;;19.20;99.90;;;;;;4987981;28;20022;-55
2021/08/20 12:18:39;;;;;;;3.10;2.53;;;19.10;99.90;;;;;;4985946;28;20497;-54
2021/08/20 12:21:13;;;;;;;2.85;2.08;;;19.00;99.90;;;;;;4989470;28;20125;-53
2021/08/20 12:24:00;;;;;;;3.05;2.08;;;19.10;99.90;;;;;;4982591;28;20014;-55
2021/08/20 12:26:26;;;;;;;5.40;2.40;;;19.30;99.90;;;;;;4981956;28;20023;-54
2021/08/20 12:28:52;;;;;;;3.72;1.90;;;19.40;99.90;;;;;;4985064;28;20030;-55
2021/08/20 12:31:22;;;;;;;2.85;2.65;;;19.50;99.90;;;;;;4987831;28;20097;-55
2021/08/20 12:34:07;;;;;;;2.38;1.98;;;19.70;99.90;;;;;;4989500;28;20485;-54
2021/08/20 12:36:32;;;;;;;2.75;2.08;;;19.70;99.90;;;;;;4982691;28;20049;-57
2021/08/20 12:39:18;;;;;;;6.68;2.47;;;19.90;99.90;;;;;;4989145;28;20602;-57
2021/08/20 12:41:44;;;;;;;3.97;2.13;;;20.20;99.90;;;;;;4986256;28;20493;-55
2021/08/20 12:44:10;;;;;;;4.18;2.50;;;20.30;99.90;;;;;;4987056;28;20015;-55
2021/08/20 12:46:38;;;;;;;2.58;2.35;;;20.40;99.90;;;;;;4989275;28;20485;-54
2021/08/20 12:49:05;;;;;;;3.17;2.20;;;20.50;99.90;;;;;;4987711;28;20030;-57
2021/08/20 12:51:33;;;;;;;2.83;2.20;;;20.50;99.90;;;;;;4983834;28;20400;-52